EST,Max TemperatureF,Mean TemperatureF,Min TemperatureF,Max Dew PointF,MeanDew PointF,Min DewpointF,Max Humidity, Mean Humidity, Min Humidity, Max Sea Level PressureIn, Mean Sea Level PressureIn, Min Sea Level PressureIn, Max VisibilityMiles, Mean VisibilityMiles, Min VisibilityMiles, Max Wind SpeedMPH, Mean Wind SpeedMPH, Max Gust SpeedMPH,PrecipitationIn, CloudCover, Events, WindDirDegrees
2012-12-1,65,49,32,46,35,30,100,68,36,30.43,30.38,30.35,10,4,0,7,1,31,0.00,0,Fog,94
2012-12-2,67,51,35,47,40,34,92,69,45,30.42,30.36,30.26,10,7,1,12,4,15,0.00,0,,189
2012-12-3,75,64,52,56,51,46,83,66,49,30.29,30.26,30.22,10,10,6,12,5,16,T,4,,195
2012-12-4,77,62,47,56,50,45,93,70,46,30.33,30.27,30.18,10,5,0,15,5,17,0.00,0,Fog,200
2012-12-5,69,56,43,58,49,38,89,64,39,30.24,30.15,30.11,10,10,9,20,9,23,T,4,Rain,302
2012-12-6,52,47,41,40,34,17,82,56,29,30.35,30.29,30.23,10,10,10,16,9,21,0.00,0,,18
2012-12-7,66,55,43,61,46,36,86,62,37,30.23,30.09,29.99,10,10,2,14,6,18,0.02,7,Rain,110
2012-12-8,66,59,51,61,52,48,86,73,60,30.06,29.99,29.95,10,7,0,12,6,14,T,5,Fog-Rain,227
2012-12-9,73,60,47,58,46,27,86,65,43,30.17,30.10,30.03,10,5,0,10,4,24,0.02,3,Fog-Rain,179
2012-12-10,73,68,62,68,62,57,90,82,73,30.01,29.82,29.73,10,8,2,18,10,25,0.06,5,Rain,190
2012-12-11,71,62,53,60,49,41,90,77,64,30.16,29.95,29.75,10,10,10,18,10,23,T,6,Rain,7
2012-12-12,53,51,48,45,43,39,86,76,66,30.32,30.27,30.16,10,9,4,23,15,29,0.16,8,Rain,19
2012-12-13,56,51,45,45,42,39,86,74,61,30.33,30.29,30.25,10,10,7,23,15,31,0.13,6,Rain,1
2012-12-14,71,53,34,43,38,24,100,64,28,30.36,30.30,30.25,10,8,0,13,4,35,0.00,0,Fog,339
2012-12-15,59,46,32,49,44,41,89,71,53,30.30,30.23,30.11,10,5,0,8,3,10,T,2,Fog,79
2012-12-16,60,57,53,56,53,50,93,85,77,30.09,30.03,29.90,10,6,0,14,5,59,0.88,8,Rain,247
2012-12-17,67,63,59,59,57,55,90,82,73,29.91,29.81,29.62,10,7,2,22,8,29,0.18,7,Rain,196
2012-12-18,67,57,46,55,50,36,87,73,59,29.87,29.70,29.62,10,10,8,18,11,24,0.02,3,Rain,247
2012-12-19,65,53,40,44,38,35,100,67,34,30.17,30.00,29.87,10,10,10,21,9,26,0.00,0,,276
2012-12-20,66,55,43,58,45,36,77,70,62,30.20,30.01,29.58,10,10,9,21,9,26,0.05,3,Rain,105
2012-12-21,66,53,40,63,41,24,87,65,42,29.72,29.52,29.37,10,8,2,30,18,41,0.42,6,Rain,242
2012-12-22,52,44,36,43,31,23,100,68,35,30.06,29.91,29.72,10,10,10,26,14,37,0.00,0,,267
2012-12-23,54,43,31,39,28,19,83,56,29,30.16,30.07,30.03,10,10,10,13,7,16,0.00,0,,229
2012-12-24,59,52,44,45,38,31,71,57,43,30.08,30.00,29.93,10,10,10,16,4,24,T,6,Rain,183
2012-12-25,59,51,43,45,42,39,89,71,53,30.17,30.07,29.93,10,10,9,14,7,17,0.00,3,,16
2012-12-26,67,59,50,61,51,39,93,80,67,30.14,29.74,29.39,10,7,2,23,16,31,1.08,7,Rain,92
2012-12-27,52,46,39,39,34,29,76,60,44,30.05,29.80,29.55,10,10,10,26,14,38,0.00,1,,273
2012-12-28,47,39,31,40,34,31,92,73,53,30.18,30.11,30.05,10,10,10,13,3,15,0.00,1,,294
2012-12-29,54,48,42,52,43,32,93,79,65,30.04,29.71,29.57,10,7,1,24,10,32,0.83,6,Rain,330
2012-12-30,49,42,34,34,28,21,85,60,34,30.37,30.17,29.86,10,10,10,25,12,31,0.00,0,,277
2012-12-31,49,39,28,33,30,22,92,67,42,30.37,30.26,30.12,10,10,10,13,7,17,0.00,1,,228